Time;durP1;ratioP1;P1;durP2;ratioP2;P2;SDS_P1;SDS_P2;PMS_P1;PMS_P2;Temp;Humidity;BMP_temperature;BMP_pressure;BME280_temperature;BME280_humidity;BME280_pressure;Samples;Min_cycle;Max_cycle;Signal;HPM_P1;HPM_P2
2021/12/07 00:00:09;;;;;;;17.85;3.00;;;;;;;;;;5094089;28;20031;-65
2021/12/07 00:02:35;;;;;;;17.50;2.72;;;;;;;;;;5093892;28;20028;-65
2021/12/07 00:05:02;;;;;;;12.38;2.83;;;;;;;;;;5093871;28;20034;-65
2021/12/07 00:07:28;;;;;;;16.75;3.05;;;;;;;;;;5091737;28;20028;-65
2021/12/07 00:09:55;;;;;;;17.23;2.85;;;;;;;;;;5090262;28;20022;-65
2021/12/07 00:12:21;;;;;;;16.17;3.00;;;;;;;;;;5091501;28;20383;-65
2021/12/07 00:14:47;;;;;;;14.15;3.00;;;;;;;;;;5091095;28;20093;-65
2021/12/07 00:17:14;;;;;;;13.38;3.17;;;;;;;;;;5092316;28;20110;-65
2021/12/07 00:19:40;;;;;;;11.23;2.80;;;;;;;;;;5084984;28;20056;-65
2021/12/07 00:22:08;;;;;;;16.75;3.45;;;;;;;;;;5085007;28;20107;-65
2021/12/07 00:24:34;;;;;;;16.50;2.63;;;;;;;;;;5092956;28;20028;-65
2021/12/07 00:27:00;;;;;;;15.93;3.20;;;;;;;;;;5090295;28;20395;-65
2021/12/07 00:29:27;;;;;;;9.48;2.67;;;;;;;;;;5086682;28;20048;-65
2021/12/07 00:32:16;;;;;;;9.38;2.67;;;;;;;;;;5072431;28;20499;-65
2021/12/07 00:34:57;;;;;;;14.88;2.42;;;;;;;;;;5084092;28;20051;-65
2021/12/07 00:37:25;;;;;;;21.92;3.45;;;;;;;;;;5092246;28;20055;-65
2021/12/07 00:39:51;;;;;;;14.25;3.58;;;;;;;;;;5092663;28;20032;-65
2021/12/07 00:42:17;;;;;;;19.20;4.80;;;;;;;;;;5092880;28;20032;-65
2021/12/07 00:44:43;;;;;;;13.90;2.78;;;;;;;;;;5063900;28;20681;-65
2021/12/07 00:47:10;;;;;;;7.55;2.80;;;;;;;;;;5072775;28;20017;-65
2021/12/07 00:49:36;;;;;;;18.98;3.35;;;;;;;;;;5060984;28;20153;-65
2021/12/07 00:52:02;;;;;;;20.73;3.42;;;;;;;;;;5091668;28;20027;-65
2021/12/07 00:54:28;;;;;;;15.32;3.28;;;;;;;;;;5080325;28;20024;-65
2021/12/07 00:56:54;;;;;;;14.18;3.38;;;;;;;;;;5058251;28;20024;-65
2021/12/07 00:59:20;;;;;;;15.02;3.22;;;;;;;;;;5093176;28;20027;-65
2021/12/07 01:01:47;;;;;;;13.70;3.70;;;;;;;;;;5074602;28;20119;-65
2021/12/07 01:04:13;;;;;;;18.27;3.25;;;;;;;;;;5092406;28;20020;-65
2021/12/07 01:06:59;;;;;;;16.02;4.80;;;;;;;;;;5091317;28;20135;-65
2021/12/07 01:25:40;;;;;;;12.20;3.67;;;;;;;;;;5064497;28;20048;-65
2021/12/07 01:28:19;;;;;;;19.15;5.07;;;;;;;;;;5069653;28;20115;-65
2021/12/07 02:00:11;;;;;;;15.60;3.67;;;;;;;;;;4994289;28;20034;-65
2021/12/07 02:02:39;;;;;;;21.05;4.97;;;;;;;;;;5025374;28;20401;-65
2021/12/07 02:05:07;;;;;;;15.40;4.45;;;;;;;;;;5029194;28;20042;-65
2021/12/07 02:07:33;;;;;;;17.15;4.20;;;;;;;;;;5030138;28;20030;-65
2021/12/07 02:10:05;;;;;;;15.38;3.47;;;;;;;;;;5020484;28;20040;-65
2021/12/07 02:12:42;;;;;;;14.57;2.67;;;;;;;;;;5014034;28;20096;-65
2021/12/07 02:15:09;;;;;;;13.30;3.08;;;;;;;;;;5013812;28;20042;-65
2021/12/07 02:17:35;;;;;;;11.93;2.95;;;;;;;;;;4998552;28;20112;-65
2021/12/07 02:20:01;;;;;;;11.70;2.78;;;;;;;;;;5013007;28;20478;-65
2021/12/07 02:22:28;;;;;;;14.70;4.15;;;;;;;;;;5016856;28;20517;-65
2021/12/07 02:24:54;;;;;;;11.30;3.03;;;;;;;;;;5033186;28;20033;-65
2021/12/07 02:27:21;;;;;;;10.95;3.17;;;;;;;;;;5016372;28;20037;-65
2021/12/07 02:29:47;;;;;;;9.63;3.00;;;;;;;;;;5033205;28;20406;-65
2021/12/07 02:32:13;;;;;;;12.98;3.30;;;;;;;;;;5032892;28;20025;-65
2021/12/07 02:34:52;;;;;;;12.38;2.92;;;;;;;;;;5061153;28;20048;-65
2021/12/07 02:37:22;;;;;;;9.85;2.40;;;;;;;;;;5095458;28;20104;-65
2021/12/07 02:39:49;;;;;;;13.82;2.83;;;;;;;;;;5077148;28;20048;-65
2021/12/07 02:42:16;;;;;;;12.52;2.80;;;;;;;;;;5063670;28;20033;-65
2021/12/07 02:44:42;;;;;;;15.55;2.13;;;;;;;;;;5067306;28;20507;-65
2021/12/07 02:47:12;;;;;;;12.45;2.40;;;;;;;;;;5076642;28;20124;-65
2021/12/07 02:49:38;;;;;;;14.75;3.17;;;;;;;;;;5085249;28;20028;-65
2021/12/07 02:52:06;;;;;;;8.13;2.47;;;;;;;;;;5076741;28;20028;-65
2021/12/07 02:54:36;;;;;;;8.57;2.15;;;;;;;;;;5077128;28;20519;-65
2021/12/07 02:57:06;;;;;;;13.52;1.80;;;;;;;;;;5076821;28;20064;-65
2021/12/07 02:59:34;;;;;;;16.55;2.10;;;;;;;;;;5066563;28;20044;-65
2021/12/07 03:02:05;;;;;;;6.40;1.95;;;;;;;;;;5056932;28;20393;-65
2021/12/07 03:04:38;;;;;;;12.13;2.15;;;;;;;;;;5056369;28;20036;-65
2021/12/07 03:07:14;;;;;;;7.68;2.08;;;;;;;;;;5057052;28;20480;-65
2021/12/07 03:26:06;;;;;;;11.68;2.60;;;;;;;;;;5076418;28;20043;-65
2021/12/07 03:28:38;;;;;;;16.65;2.33;;;;;;;;;;5076199;28;20032;-65
2021/12/07 03:31:05;;;;;;;10.90;2.25;;;;;;;;;;5076179;28;20052;-65
2021/12/07 03:33:31;;;;;;;11.00;1.90;;;;;;;;;;5075875;28;20099;-65
2021/12/07 03:35:58;;;;;;;12.38;2.47;;;;;;;;;;5068089;28;20454;-65
2021/12/07 03:38:24;;;;;;;11.43;2.08;;;;;;;;;;5063895;28;20036;-65
2021/12/07 03:40:51;;;;;;;17.95;2.10;;;;;;;;;;5075939;28;20043;-65
2021/12/07 03:43:18;;;;;;;16.75;2.35;;;;;;;;;;5076067;28;20028;-65
2021/12/07 03:45:45;;;;;;;18.40;2.25;;;;;;;;;;5075804;28;20032;-65
2021/12/07 03:48:12;;;;;;;20.45;2.42;;;;;;;;;;5075112;28;20028;-65
2021/12/07 03:50:39;;;;;;;14.45;2.90;;;;;;;;;;5075929;28;20032;-65
2021/12/07 03:53:05;;;;;;;17.10;2.60;;;;;;;;;;5094149;28;20024;-65
2021/12/07 03:55:32;;;;;;;11.70;2.33;;;;;;;;;;5075845;28;20473;-65
2021/12/07 03:57:58;;;;;;;13.45;2.38;;;;;;;;;;5075632;28;20028;-65
2021/12/07 04:00:26;;;;;;;17.92;2.30;;;;;;;;;;5093586;28;20028;-65
2021/12/07 04:02:56;;;;;;;16.52;2.80;;;;;;;;;;5075972;28;20036;-65
2021/12/07 04:05:25;;;;;;;9.15;1.95;;;;;;;;;;5071981;28;20064;-65
2021/12/07 04:07:52;;;;;;;11.88;2.40;;;;;;;;;;5073808;28;20065;-65
2021/12/07 04:10:20;;;;;;;10.30;1.98;;;;;;;;;;5074991;28;20024;-65
2021/12/07 04:12:47;;;;;;;14.90;3.20;;;;;;;;;;5075430;28;20082;-65
2021/12/07 04:15:15;;;;;;;11.35;3.00;;;;;;;;;;5074639;28;20131;-65
2021/12/07 04:17:41;;;;;;;16.17;3.78;;;;;;;;;;5075728;28;20077;-65
2021/12/07 04:20:09;;;;;;;17.33;2.38;;;;;;;;;;5074947;28;20114;-65
2021/12/07 04:22:35;;;;;;;14.25;2.47;;;;;;;;;;5071871;28;20047;-65
2021/12/07 04:25:01;;;;;;;16.85;2.17;;;;;;;;;;5087384;28;20032;-65
2021/12/07 04:27:29;;;;;;;10.95;2.15;;;;;;;;;;5076641;28;20020;-65
2021/12/07 04:29:55;;;;;;;9.13;2.08;;;;;;;;;;5078561;28;20489;-65
2021/12/07 04:32:21;;;;;;;14.70;1.95;;;;;;;;;;5060895;28;20024;-65
2021/12/07 04:34:47;;;;;;;13.88;2.15;;;;;;;;;;5093088;28;20024;-65
2021/12/07 04:37:13;;;;;;;12.68;2.55;;;;;;;;;;5092589;28;20492;-65
2021/12/07 04:39:40;;;;;;;10.23;2.28;;;;;;;;;;5074517;28;20424;-65
2021/12/07 04:42:06;;;;;;;11.15;2.80;;;;;;;;;;5078759;28;20028;-65
2021/12/07 04:44:38;;;;;;;10.80;2.47;;;;;;;;;;5092111;28;20023;-64
2021/12/07 04:47:12;;;;;;;18.23;2.63;;;;;;;;;;5088030;28;20030;-65
2021/12/07 04:58:04;;;;;;;18.10;2.25;;;;;;;;;;5081840;28;20523;-64
2021/12/07 05:00:30;;;;;;;20.25;4.30;;;;;;;;;;5087805;28;20494;-65
2021/12/07 05:02:58;;;;;;;16.90;2.15;;;;;;;;;;5073044;28;20063;-65
2021/12/07 05:05:29;;;;;;;19.63;2.78;;;;;;;;;;5072356;28;20024;-65
2021/12/07 05:07:58;;;;;;;19.70;2.75;;;;;;;;;;5072781;28;20032;-64
2021/12/07 05:10:33;;;;;;;15.98;2.80;;;;;;;;;;5084414;28;20086;-64
2021/12/07 05:18:23;;;;;;;13.88;2.65;;;;;;;;;;5092795;28;20028;-63
2021/12/07 05:40:05;;;;;;;14.60;2.75;;;;;;;;;;5029034;28;20050;-64
2021/12/07 05:42:31;;;;;;;16.23;2.30;;;;;;;;;;5030185;28;20033;-64
2021/12/07 05:44:57;;;;;;;14.43;2.42;;;;;;;;;;5034376;28;20045;-64
2021/12/07 05:47:24;;;;;;;21.10;3.33;;;;;;;;;;5033814;28;20034;-64
2021/12/07 05:49:50;;;;;;;18.40;2.55;;;;;;;;;;5033866;28;20036;-64
2021/12/07 05:52:16;;;;;;;22.08;3.03;;;;;;;;;;5033750;28;20044;-64
2021/12/07 05:54:43;;;;;;;21.52;2.85;;;;;;;;;;5034286;28;20107;-64
2021/12/07 05:57:09;;;;;;;13.50;2.55;;;;;;;;;;5032788;28;20068;-64
2021/12/07 05:59:35;;;;;;;12.88;3.15;;;;;;;;;;5033473;28;20084;-64
2021/12/07 06:02:01;;;;;;;14.70;2.90;;;;;;;;;;5033578;28;20037;-64
2021/12/07 06:04:30;;;;;;;17.25;3.45;;;;;;;;;;5033545;28;20398;-64
2021/12/07 06:06:56;;;;;;;16.98;3.20;;;;;;;;;;5084958;28;20129;-64
2021/12/07 06:09:22;;;;;;;20.55;2.45;;;;;;;;;;5092518;28;20081;-64
2021/12/07 06:11:50;;;;;;;14.80;2.35;;;;;;;;;;5085455;28;20452;-64
2021/12/07 06:14:19;;;;;;;18.98;3.45;;;;;;;;;;5091674;28;20039;-64
2021/12/07 06:16:46;;;;;;;18.85;2.72;;;;;;;;;;5089785;28;20020;-64
2021/12/07 06:19:12;;;;;;;16.05;3.70;;;;;;;;;;5089358;28;20078;-64
2021/12/07 06:21:38;;;;;;;15.57;2.65;;;;;;;;;;5084827;28;20025;-64
2021/12/07 06:24:04;;;;;;;15.23;2.42;;;;;;;;;;5089502;28;20036;-64
2021/12/07 06:26:31;;;;;;;22.02;3.28;;;;;;;;;;5089558;28;20024;-64
2021/12/07 06:28:57;;;;;;;22.95;3.25;;;;;;;;;;5090927;28;20044;-64
2021/12/07 06:31:23;;;;;;;13.93;2.75;;;;;;;;;;5090021;28;20103;-64
2021/12/07 06:33:49;;;;;;;26.65;2.35;;;;;;;;;;5089744;28;20036;-64
2021/12/07 06:36:15;;;;;;;20.60;3.13;;;;;;;;;;5088096;28;20050;-65
2021/12/07 06:38:42;;;;;;;23.83;3.42;;;;;;;;;;5071512;28;20454;-64
2021/12/07 06:41:08;;;;;;;19.30;3.63;;;;;;;;;;5091810;28;20028;-63
2021/12/07 06:43:34;;;;;;;18.80;2.83;;;;;;;;;;5094053;28;20038;-63
2021/12/07 06:46:00;;;;;;;25.27;3.35;;;;;;;;;;5092968;28;20039;-63
2021/12/07 06:48:27;;;;;;;25.63;3.92;;;;;;;;;;5073643;28;20472;-64
2021/12/07 06:50:53;;;;;;;23.70;3.20;;;;;;;;;;5095279;28;20494;-64
2021/12/07 06:53:19;;;;;;;22.35;3.05;;;;;;;;;;5111174;28;20030;-64
2021/12/07 06:55:46;;;;;;;18.83;3.50;;;;;;;;;;5112932;28;20036;-64
2021/12/07 06:58:12;;;;;;;19.15;3.55;;;;;;;;;;5095652;28;20036;-64
2021/12/07 07:00:38;;;;;;;30.70;5.30;;;;;;;;;;5091692;28;20035;-63
2021/12/07 07:03:05;;;;;;;23.10;3.53;;;;;;;;;;5100472;28;20123;-63
2021/12/07 07:05:31;;;;;;;24.48;3.38;;;;;;;;;;5093574;28;20153;-63
2021/12/07 07:07:57;;;;;;;26.48;4.10;;;;;;;;;;5094604;28;20020;-63
2021/12/07 07:10:24;;;;;;;15.27;3.85;;;;;;;;;;5081918;28;20081;-64
2021/12/07 07:12:50;;;;;;;22.95;3.88;;;;;;;;;;5093702;28;20036;-62
2021/12/07 07:15:16;;;;;;;38.85;6.28;;;;;;;;;;5103072;28;20568;-64
2021/12/07 07:17:43;;;;;;;36.25;6.15;;;;;;;;;;5084416;28;20075;-64
2021/12/07 07:20:11;;;;;;;28.70;4.15;;;;;;;;;;5079899;28;20423;-64
2021/12/07 07:22:37;;;;;;;34.00;4.18;;;;;;;;;;5097757;28;20043;-64
2021/12/07 07:25:04;;;;;;;35.00;4.18;;;;;;;;;;5087059;28;20056;-64
2021/12/07 07:27:30;;;;;;;26.95;5.25;;;;;;;;;;5092090;28;20055;-64
2021/12/07 07:29:57;;;;;;;34.28;4.70;;;;;;;;;;5076247;28;20055;-64
2021/12/07 07:32:23;;;;;;;29.48;4.38;;;;;;;;;;5083329;28;20549;-64
2021/12/07 07:34:49;;;;;;;36.47;4.28;;;;;;;;;;5072698;28;20052;-64
2021/12/07 07:37:15;;;;;;;30.25;4.57;;;;;;;;;;5026181;28;1343792;-65
2021/12/07 07:39:42;;;;;;;39.35;4.00;;;;;;;;;;5091314;28;20271;-64
2021/12/07 07:42:08;;;;;;;23.27;3.85;;;;;;;;;;5093844;28;20032;-64
2021/12/07 07:44:47;;;;;;;24.42;3.88;;;;;;;;;;5074980;28;20385;-65
2021/12/07 07:47:13;;;;;;;32.60;6.78;;;;;;;;;;5092256;28;20020;-64
2021/12/07 07:49:40;;;;;;;32.20;3.92;;;;;;;;;;5076492;28;20085;-65
2021/12/07 07:52:06;;;;;;;22.83;4.13;;;;;;;;;;5093660;28;20024;-64
2021/12/07 07:54:32;;;;;;;31.55;4.60;;;;;;;;;;5092717;28;20016;-64
2021/12/07 07:56:58;;;;;;;24.50;3.75;;;;;;;;;;5093584;28;20074;-64
2021/12/07 07:59:24;;;;;;;21.05;3.38;;;;;;;;;;5093023;28;20032;-65
2021/12/07 08:01:50;;;;;;;19.33;4.53;;;;;;;;;;5093090;28;20522;-64
2021/12/07 08:04:17;;;;;;;21.17;3.28;;;;;;;;;;5093160;28;20379;-65
2021/12/07 08:06:43;;;;;;;19.27;3.03;;;;;;;;;;5092094;28;20032;-65
2021/12/07 08:09:09;;;;;;;18.45;3.72;;;;;;;;;;5092955;28;20018;-64
2021/12/07 08:11:36;;;;;;;26.80;3.72;;;;;;;;;;5093003;28;20028;-65
2021/12/07 08:14:02;;;;;;;18.08;3.05;;;;;;;;;;5092993;28;20027;-64
2021/12/07 08:16:28;;;;;;;22.63;4.35;;;;;;;;;;5093023;28;20028;-64
2021/12/07 08:18:54;;;;;;;23.42;3.95;;;;;;;;;;5092783;28;20028;-64
2021/12/07 08:21:24;;;;;;;17.65;3.38;;;;;;;;;;5074610;28;20028;-65
2021/12/07 08:23:50;;;;;;;23.23;4.05;;;;;;;;;;5092401;28;20081;-65
2021/12/07 08:26:18;;;;;;;29.13;4.75;;;;;;;;;;5092877;28;20464;-65
2021/12/07 08:28:44;;;;;;;21.95;3.60;;;;;;;;;;5092581;28;20085;-64
2021/12/07 08:31:11;;;;;;;22.35;3.53;;;;;;;;;;5092941;28;20514;-64
2021/12/07 08:33:37;;;;;;;24.45;4.18;;;;;;;;;;5092399;28;20051;-64
2021/12/07 08:36:04;;;;;;;21.45;4.88;;;;;;;;;;5092372;28;20044;-64
2021/12/07 08:38:31;;;;;;;21.40;3.47;;;;;;;;;;5092332;28;20028;-64
2021/12/07 08:40:57;;;;;;;24.95;4.10;;;;;;;;;;5092604;28;20047;-64
2021/12/07 08:43:30;;;;;;;17.83;3.55;;;;;;;;;;5092222;28;20090;-65
2021/12/07 08:45:57;;;;;;;25.95;3.78;;;;;;;;;;5092420;28;20591;-64
2021/12/07 08:48:23;;;;;;;19.08;3.60;;;;;;;;;;5092447;28;20028;-65
2021/12/07 08:50:50;;;;;;;18.17;3.50;;;;;;;;;;5091819;28;20027;-65
2021/12/07 08:53:17;;;;;;;29.15;3.50;;;;;;;;;;5085593;28;20027;-65
2021/12/07 09:01:16;;;;;;;18.60;3.63;;;;;;;;;;5090823;28;20047;-65
2021/12/07 09:03:43;;;;;;;22.85;3.63;;;;;;;;;;5071781;28;20439;-65
2021/12/07 09:06:10;;;;;;;20.52;3.90;;;;;;;;;;5071731;28;20515;-64
2021/12/07 09:08:36;;;;;;;26.00;4.13;;;;;;;;;;5071861;28;20021;-65
2021/12/07 09:11:03;;;;;;;32.13;3.47;;;;;;;;;;5071831;28;20029;-64
2021/12/07 09:13:29;;;;;;;18.77;4.13;;;;;;;;;;5054018;28;20032;-64
2021/12/07 09:15:56;;;;;;;20.65;3.95;;;;;;;;;;5071629;28;20029;-65
2021/12/07 09:18:22;;;;;;;21.30;3.15;;;;;;;;;;5079574;28;20031;-65
2021/12/07 09:20:49;;;;;;;17.17;3.97;;;;;;;;;;5091173;28;20498;-65
2021/12/07 09:23:15;;;;;;;26.75;3.38;;;;;;;;;;5092309;28;20031;-64
2021/12/07 09:25:41;;;;;;;23.38;3.28;;;;;;;;;;5091566;28;20035;-64
2021/12/07 09:28:09;;;;;;;20.27;3.55;;;;;;;;;;5092137;28;20023;-65
2021/12/07 09:30:36;;;;;;;19.25;3.67;;;;;;;;;;5091767;28;20404;-65
2021/12/07 09:33:02;;;;;;;16.45;3.63;;;;;;;;;;5091858;28;20024;-64
2021/12/07 09:35:28;;;;;;;19.52;3.72;;;;;;;;;;5091179;28;20028;-65
2021/12/07 09:37:55;;;;;;;20.02;3.85;;;;;;;;;;5091846;28;20115;-64
2021/12/07 09:40:23;;;;;;;20.50;3.53;;;;;;;;;;5091447;28;20115;-65
2021/12/07 09:42:49;;;;;;;25.95;4.05;;;;;;;;;;5091654;28;20024;-65
2021/12/07 09:45:16;;;;;;;26.70;4.22;;;;;;;;;;5091586;28;20020;-65
2021/12/07 09:47:43;;;;;;;21.25;3.90;;;;;;;;;;5091952;28;20164;-64
2021/12/07 09:50:11;;;;;;;27.05;3.63;;;;;;;;;;5091343;28;20167;-64
2021/12/07 09:52:37;;;;;;;24.70;3.95;;;;;;;;;;5091790;28;20077;-65
2021/12/07 09:55:04;;;;;;;15.82;3.78;;;;;;;;;;5091466;28;20076;-65
2021/12/07 09:57:30;;;;;;;18.10;3.13;;;;;;;;;;5091721;28;20036;-64
2021/12/07 09:59:56;;;;;;;14.70;2.92;;;;;;;;;;5091468;28;20085;-64
2021/12/07 10:02:22;;;;;;;12.90;2.85;;;;;;;;;;5091614;28;20111;-65
2021/12/07 10:04:49;;;;;;;13.63;2.83;;;;;;;;;;5090920;28;20434;-65
2021/12/07 10:07:16;;;;;;;13.55;3.15;;;;;;;;;;5091951;28;20480;-65
2021/12/07 10:09:42;;;;;;;23.95;4.68;;;;;;;;;;5091329;28;20028;-65
2021/12/07 10:12:09;;;;;;;11.55;2.80;;;;;;;;;;5091383;28;20030;-64
2021/12/07 10:14:39;;;;;;;13.73;2.50;;;;;;;;;;5073523;28;20024;-65
2021/12/07 10:17:05;;;;;;;17.90;2.78;;;;;;;;;;5091268;28;20511;-64
2021/12/07 10:19:35;;;;;;;17.20;2.53;;;;;;;;;;5091273;28;20016;-64
2021/12/07 10:22:09;;;;;;;15.27;2.80;;;;;;;;;;5073183;28;20032;-65
2021/12/07 10:24:39;;;;;;;12.80;3.08;;;;;;;;;;5091588;28;20403;-65
2021/12/07 10:27:07;;;;;;;15.40;2.50;;;;;;;;;;5090579;28;20518;-65
2021/12/07 10:29:34;;;;;;;14.25;2.42;;;;;;;;;;5093580;28;20044;-65
2021/12/07 10:32:01;;;;;;;10.88;2.78;;;;;;;;;;5094446;28;20024;-65
2021/12/07 10:34:33;;;;;;;18.65;3.20;;;;;;;;;;5095226;28;20016;-65
2021/12/07 10:37:05;;;;;;;10.45;2.15;;;;;;;;;;5094417;28;20047;-65
2021/12/07 10:39:39;;;;;;;9.82;2.03;;;;;;;;;;5094997;28;20024;-65
2021/12/07 10:42:08;;;;;;;4.80;1.52;;;;;;;;;;5094825;28;20028;-65
2021/12/07 10:44:35;;;;;;;7.78;2.10;;;;;;;;;;5094795;28;20085;-65
2021/12/07 10:47:04;;;;;;;17.63;2.50;;;;;;;;;;5094226;28;20028;-65
2021/12/07 10:49:32;;;;;;;11.90;2.03;;;;;;;;;;5094800;28;20397;-65
2021/12/07 10:52:00;;;;;;;7.03;1.50;;;;;;;;;;5094544;28;20393;-65
2021/12/07 10:54:28;;;;;;;7.57;1.90;;;;;;;;;;5087922;28;20017;-65
2021/12/07 10:56:54;;;;;;;14.52;2.67;;;;;;;;;;5074050;28;20025;-65
2021/12/07 10:59:20;;;;;;;14.88;2.10;;;;;;;;;;5074522;28;20029;-65
2021/12/07 11:01:49;;;;;;;10.48;1.98;;;;;;;;;;5055761;28;20039;-65
2021/12/07 11:04:28;;;;;;;5.70;1.80;;;;;;;;;;5058909;28;20028;-65
2021/12/07 11:07:09;;;;;;;8.43;2.10;;;;;;;;;;5093837;28;20032;-65
2021/12/07 11:09:47;;;;;;;8.52;1.52;;;;;;;;;;5094677;28;20470;-65
2021/12/07 11:12:14;;;;;;;3.60;1.20;;;;;;;;;;5094346;28;20395;-65
2021/12/07 11:14:41;;;;;;;3.85;1.15;;;;;;;;;;5094299;28;20491;-65
2021/12/07 11:17:08;;;;;;;4.55;1.65;;;;;;;;;;5093713;28;20077;-65
2021/12/07 11:19:35;;;;;;;3.10;1.27;;;;;;;;;;5094240;28;20024;-65
2021/12/07 11:22:01;;;;;;;5.43;1.65;;;;;;;;;;5093895;28;20121;-65
2021/12/07 11:24:38;;;;;;;5.05;1.10;;;;;;;;;;5094144;28;20017;-65
2021/12/07 11:30:00;;;;;;;1.80;0.80;;;;;;;;;;5091028;28;20484;-65
2021/12/07 11:32:26;;;;;;;1.08;0.60;;;;;;;;;;5091543;28;20452;-65
2021/12/07 11:34:53;;;;;;;6.53;3.47;;;;;;;;;;5106294;28;20388;-66
2021/12/07 11:37:22;;;;;;;3.08;1.90;;;;;;;;;;5074013;28;20480;-66
2021/12/07 11:39:51;;;;;;;1.30;0.70;;;;;;;;;;5088538;28;20024;-66
2021/12/07 11:42:17;;;;;;;3.35;1.30;;;;;;;;;;5089829;28;20024;-66
2021/12/07 11:44:51;;;;;;;2.70;0.70;;;;;;;;;;5085044;28;20080;-66
2021/12/07 11:47:30;;;;;;;3.00;1.67;;;;;;;;;;5088194;28;20017;-66
2021/12/07 11:49:57;;;;;;;5.70;2.78;;;;;;;;;;5096790;28;20015;-66
2021/12/07 11:52:23;;;;;;;27.58;6.40;;;;;;;;;;5100900;28;20032;-66
2021/12/07 11:54:50;;;;;;;45.85;9.50;;;;;;;;;;5085373;28;20032;-66
2021/12/07 11:57:18;;;;;;;48.80;9.90;;;;;;;;;;5085426;28;20050;-66
2021/12/07 11:59:45;;;;;;;37.65;8.20;;;;;;;;;;5085468;28;20035;-66
2021/12/07 12:02:11;;;;;;;55.45;8.35;;;;;;;;;;5091548;28;20036;-66
2021/12/07 12:04:39;;;;;;;60.60;8.25;;;;;;;;;;5086193;28;20112;-66
2021/12/07 12:07:08;;;;;;;48.50;8.77;;;;;;;;;;5085386;28;20123;-66
2021/12/07 12:09:35;;;;;;;55.08;9.77;;;;;;;;;;5078940;28;20047;-66
2021/12/07 12:12:07;;;;;;;58.30;8.90;;;;;;;;;;5083831;28;20032;-66
2021/12/07 12:14:41;;;;;;;56.95;9.27;;;;;;;;;;5090834;28;20028;-66
2021/12/07 12:17:14;;;;;;;66.97;9.52;;;;;;;;;;5081903;28;20401;-66
2021/12/07 12:19:46;;;;;;;61.58;10.45;;;;;;;;;;5087562;28;20032;-66
2021/12/07 12:22:18;;;;;;;58.30;8.93;;;;;;;;;;5085997;28;20032;-66
2021/12/07 12:24:52;;;;;;;61.53;9.00;;;;;;;;;;5086333;28;20522;-66
2021/12/07 12:27:20;;;;;;;61.90;8.85;;;;;;;;;;5088682;28;20404;-66
2021/12/07 12:29:48;;;;;;;60.58;10.93;;;;;;;;;;5071444;28;20515;-64
2021/12/07 12:32:14;;;;;;;62.97;10.38;;;;;;;;;;5092027;28;20028;-64
2021/12/07 12:34:50;;;;;;;58.58;8.32;;;;;;;;;;5091728;28;20028;-65
2021/12/07 12:37:18;;;;;;;54.53;8.38;;;;;;;;;;5088654;28;20044;-64
2021/12/07 12:39:49;;;;;;;66.15;8.15;;;;;;;;;;5082121;28;20024;-65
2021/12/07 12:42:16;;;;;;;50.90;7.68;;;;;;;;;;5085308;28;20544;-66
2021/12/07 12:44:42;;;;;;;48.97;7.50;;;;;;;;;;5077641;28;20030;-66
2021/12/07 12:47:08;;;;;;;64.20;10.00;;;;;;;;;;5080685;28;20079;-66
2021/12/07 12:49:39;;;;;;;45.22;8.55;;;;;;;;;;5083441;28;20103;-65
2021/12/07 12:52:05;;;;;;;54.28;8.23;;;;;;;;;;5079115;28;20032;-66
2021/12/07 12:54:39;;;;;;;42.50;7.72;;;;;;;;;;5072656;28;20032;-66
2021/12/07 12:57:09;;;;;;;38.22;6.40;;;;;;;;;;5072227;28;20185;-65
2021/12/07 12:59:40;;;;;;;49.33;7.03;;;;;;;;;;5072187;28;20119;-65
2021/12/07 13:02:06;;;;;;;60.75;8.38;;;;;;;;;;5072319;28;20064;-66
2021/12/07 13:04:34;;;;;;;36.75;6.82;;;;;;;;;;5072054;28;20029;-66
2021/12/07 13:07:23;;;;;;;48.60;8.88;;;;;;;;;;5072273;28;20112;-66
2021/12/07 13:09:49;;;;;;;46.78;7.63;;;;;;;;;;5071989;28;20078;-66
2021/12/07 13:12:19;;;;;;;45.75;8.80;;;;;;;;;;5071647;28;20107;-66
2021/12/07 13:15:08;;;;;;;41.55;6.72;;;;;;;;;;5072130;28;20029;-66
2021/12/07 13:17:41;;;;;;;43.95;8.95;;;;;;;;;;5072039;28;20119;-65
2021/12/07 13:20:07;;;;;;;55.33;8.13;;;;;;;;;;5071910;28;20024;-65
2021/12/07 13:22:38;;;;;;;49.97;12.20;;;;;;;;;;5072026;28;20085;-65
2021/12/07 13:25:09;;;;;;;44.35;9.25;;;;;;;;;;5071957;28;20032;-66
2021/12/07 13:27:36;;;;;;;55.33;9.68;;;;;;;;;;5071673;28;20036;-66
2021/12/07 13:30:03;;;;;;;42.88;8.27;;;;;;;;;;5072079;28;20025;-65
2021/12/07 13:32:30;;;;;;;54.25;8.30;;;;;;;;;;5071777;28;20473;-65
2021/12/07 13:35:00;;;;;;;46.50;7.97;;;;;;;;;;5053804;28;20028;-65
2021/12/07 13:37:44;;;;;;;47.25;8.13;;;;;;;;;;5071515;28;20090;-66
2021/12/07 13:40:17;;;;;;;56.58;11.23;;;;;;;;;;5087039;28;20040;-66
2021/12/07 13:42:48;;;;;;;48.92;9.90;;;;;;;;;;5092152;28;20454;-66
2021/12/07 13:45:17;;;;;;;54.50;9.43;;;;;;;;;;5091723;28;20035;-66
2021/12/07 13:47:44;;;;;;;45.45;8.30;;;;;;;;;;5092211;28;20020;-66
2021/12/07 13:50:10;;;;;;;52.90;8.40;;;;;;;;;;5091666;28;20048;-66
2021/12/07 13:52:38;;;;;;;48.85;8.55;;;;;;;;;;5092064;28;20078;-66
2021/12/07 13:55:13;;;;;;;46.30;7.55;;;;;;;;;;5091484;28;20115;-66
2021/12/07 13:57:40;;;;;;;56.90;8.25;;;;;;;;;;5091969;28;20047;-66
2021/12/07 14:00:06;;;;;;;45.85;8.45;;;;;;;;;;5091740;28;20033;-66
2021/12/07 14:02:38;;;;;;;44.00;6.13;;;;;;;;;;5091840;28;20060;-66
2021/12/07 14:05:07;;;;;;;40.33;8.02;;;;;;;;;;5094631;28;20039;-66
2021/12/07 14:07:34;;;;;;;45.83;8.63;;;;;;;;;;5095629;28;20476;-66
2021/12/07 14:10:11;;;;;;;58.10;8.85;;;;;;;;;;5095364;28;20111;-66
2021/12/07 14:12:37;;;;;;;40.97;7.47;;;;;;;;;;5095735;28;20028;-66
2021/12/07 14:15:24;;;;;;;50.97;8.60;;;;;;;;;;5095457;28;20650;-66
2021/12/07 14:17:55;;;;;;;37.85;7.25;;;;;;;;;;5096049;28;20024;-66
2021/12/07 14:20:31;;;;;;;34.45;7.78;;;;;;;;;;5077180;28;20032;-66
2021/12/07 14:22:58;;;;;;;48.55;7.15;;;;;;;;;;5095709;28;20024;-66
2021/12/07 14:25:26;;;;;;;47.10;7.20;;;;;;;;;;5094760;28;20483;-66
2021/12/07 14:28:01;;;;;;;42.40;6.50;;;;;;;;;;5076358;28;20039;-66
2021/12/07 14:30:28;;;;;;;46.90;7.38;;;;;;;;;;5094984;28;20572;-66
2021/12/07 14:32:54;;;;;;;45.78;6.93;;;;;;;;;;5095361;28;20502;-66
2021/12/07 14:35:21;;;;;;;31.17;5.72;;;;;;;;;;5095230;28;20085;-66
2021/12/07 14:37:47;;;;;;;35.67;5.72;;;;;;;;;;5095231;28;20067;-66
2021/12/07 14:40:13;;;;;;;31.50;5.53;;;;;;;;;;5094424;28;20412;-66
2021/12/07 14:42:39;;;;;;;34.22;6.47;;;;;;;;;;5095169;28;20016;-66
2021/12/07 14:45:06;;;;;;;31.73;5.15;;;;;;;;;;5094468;28;20028;-66
2021/12/07 14:47:32;;;;;;;34.08;5.85;;;;;;;;;;5085853;28;20036;-66
2021/12/07 14:50:00;;;;;;;29.83;5.30;;;;;;;;;;5069002;28;20094;-66
2021/12/07 14:52:32;;;;;;;39.65;7.22;;;;;;;;;;5080322;28;20024;-66
2021/12/07 14:54:59;;;;;;;33.47;6.80;;;;;;;;;;5087399;28;20013;-67
2021/12/07 14:57:26;;;;;;;35.90;6.35;;;;;;;;;;5090111;28;20028;-66
2021/12/07 14:59:55;;;;;;;33.20;5.40;;;;;;;;;;5086062;28;20442;-66
2021/12/07 15:02:21;;;;;;;40.70;8.32;;;;;;;;;;5084491;28;20012;-66
2021/12/07 15:04:54;;;;;;;25.90;4.55;;;;;;;;;;5084872;28;20015;-66
2021/12/07 15:07:20;;;;;;;26.40;4.60;;;;;;;;;;5084914;28;20024;-66
2021/12/07 15:09:46;;;;;;;26.90;4.13;;;;;;;;;;5084710;28;20403;-66
2021/12/07 15:12:18;;;;;;;30.33;5.38;;;;;;;;;;5082668;28;20022;-66
2021/12/07 15:14:45;;;;;;;31.57;6.00;;;;;;;;;;5082848;28;20035;-66
2021/12/07 15:17:11;;;;;;;23.13;4.63;;;;;;;;;;5085085;28;20269;-66
2021/12/07 15:19:37;;;;;;;33.95;5.45;;;;;;;;;;5083133;28;20028;-66
2021/12/07 15:22:05;;;;;;;23.77;5.05;;;;;;;;;;5083049;28;20443;-66
2021/12/07 15:24:36;;;;;;;38.55;5.13;;;;;;;;;;5089376;28;20024;-66
2021/12/07 15:27:03;;;;;;;25.95;4.45;;;;;;;;;;5091898;28;20031;-66
2021/12/07 15:29:30;;;;;;;20.88;3.78;;;;;;;;;;5088754;28;20043;-66
2021/12/07 15:31:57;;;;;;;27.02;3.38;;;;;;;;;;5073024;28;20028;-66
2021/12/07 15:34:25;;;;;;;16.98;2.60;;;;;;;;;;5091745;28;20031;-66
2021/12/07 15:37:03;;;;;;;24.15;3.65;;;;;;;;;;5088282;28;20040;-66
2021/12/07 15:39:30;;;;;;;18.75;2.88;;;;;;;;;;5087521;28;20120;-65
2021/12/07 15:41:59;;;;;;;16.25;3.83;;;;;;;;;;5083420;28;20032;-65
2021/12/07 15:44:27;;;;;;;23.60;3.63;;;;;;;;;;5084759;28;20035;-65
2021/12/07 15:46:55;;;;;;;20.85;3.83;;;;;;;;;;5083544;28;20095;-66
2021/12/07 15:49:22;;;;;;;25.13;2.95;;;;;;;;;;5084246;28;20044;-66
2021/12/07 15:51:50;;;;;;;15.88;3.00;;;;;;;;;;5084262;28;20024;-66
2021/12/07 15:54:16;;;;;;;13.55;3.35;;;;;;;;;;5085004;28;20078;-66
2021/12/07 15:56:42;;;;;;;14.73;2.80;;;;;;;;;;5082031;28;20058;-66
2021/12/07 15:59:13;;;;;;;20.40;4.38;;;;;;;;;;5086557;28;20028;-66
2021/12/07 16:01:39;;;;;;;14.82;3.00;;;;;;;;;;5082561;28;20297;-67
2021/12/07 16:04:05;;;;;;;15.50;3.25;;;;;;;;;;5092096;28;20029;-67
2021/12/07 16:06:35;;;;;;;21.08;4.55;;;;;;;;;;5093770;28;20107;-67
2021/12/07 16:09:14;;;;;;;17.20;3.67;;;;;;;;;;5093959;28;20146;-66
2021/12/07 16:11:40;;;;;;;33.10;6.35;;;;;;;;;;5063995;28;20385;-66
2021/12/07 16:14:06;;;;;;;22.60;5.00;;;;;;;;;;5092756;28;20030;-67
2021/12/07 16:16:32;;;;;;;18.33;3.92;;;;;;;;;;5091910;28;20525;-66
2021/12/07 16:18:59;;;;;;;21.88;3.80;;;;;;;;;;5094206;28;20028;-66